Aérodrome :
LOGIN :

S'inscrire | Disclaimer

   EN    FR    IT 

 










Légende :    VFR   VFR Marginal   IFR   IFR Intensif   IFR Très Intensif
Visi : 
Plafond : 
>= 8 km
>= 3000ft
5 à 8 km
1000 à 3000 ft
1500m à 5 km
500 à 1000 ft
800 à 1500m
200 à 500 ft
< 800m
< 200 ft
Symboles :   Orages  Brouillard  Fortes neiges  Fortes précipitations  Vent > 20 kt
SIGMETs :   Divers  Orages  Givrage  Turbulence  Onde Orograph.  Cendres Volcan.






- Altitude de l'aérodrome : 2031 ft


LEGT - Madrid Getafe

DERNIER METAR :
  • 190900Z 22015KT 9999 SCT025 SCT030 19/14 Q1017

METARs EXPIRÉS :
  • 190830Z 20012KT 160V240 9999 FEW025 SCT035 18/14 Q1017
  • 190800Z 20010KT 170V230 9999 FEW030 SCT035 18/14 Q1016
  • 190700Z 20008KT 160V230 9999 SCT030 BKN040 16/13 Q1016
  • 190630Z 20008KT 170V230 9999 SCT025 BKN035 16/13 Q1016

TAF TAF LEGT
Valide du 19 à 06h jusqu'au 20 à 06h UTC


190500Z 1906/2006 19010KT 9999 SCT035 TX22/1915Z TN14/2006Z
PROB30
TEMPO 1908/1912 3000 RA SHRA SCT030TCU
BECMG 1917/1919 VRB05KT



MET'MAP, la Météo Aéronautique d'un coup d'oeil ! - Copyright ORBIFLY Décembre 2007 - Disclaimer

ORBIFLY MET'MAP TEAM :

Programmation & Développement : Alexandra Zaïnal
Sur une idée originale de : Baudouin d'Aumeries
Assistance à la programmation : Marc-Olivier Méhu
Soutien technique & logistique : Manuel Goepfert

Contact : metmap@orbifly.com




SOURCES & CREDITS :

   NOAA